Time;durP1;ratioP1;P1;durP2;ratioP2;P2;SDS_P1;SDS_P2;PMS_P1;PMS_P2;Temp;Humidity;BMP_temperature;BMP_pressure;BME280_temperature;BME280_humidity;BME280_pressure;Samples;Min_cycle;Max_cycle;Signal;HPM_P1;HPM_P2
2023/12/05 00:00:36;;;;;;;;;;;;;;;2.86;81.26;95610.03;5074371;28;966;-66
2023/12/05 00:03:02;;;;;;;;;;;;;;;2.93;80.20;95595.47;5073997;28;1064;-66
2023/12/05 00:05:28;;;;;;;;;;;;;;;2.87;79.75;95602.03;5074031;28;1041;-66
2023/12/05 00:07:57;;;;;;;;;;;;;;;2.96;80.36;95597.94;5074044;28;973;-66
2023/12/05 00:10:23;;;;;;;;;;;;;;;2.90;79.20;95600.97;5073917;28;1906;-65
2023/12/05 00:12:49;;;;;;;;;;;;;;;2.84;78.08;95609.31;5073959;28;1081;-65
2023/12/05 00:15:15;;;;;;;;;;;;;;;2.70;78.79;95607.59;5073846;28;1037;-66
2023/12/05 00:17:41;;;;;;;;;;;;;;;2.69;79.50;95613.81;5073906;28;1029;-66
2023/12/05 00:20:07;;;;;;;;;;;;;;;2.74;79.44;95609.09;5073914;28;993;-65
2023/12/05 00:22:33;;;;;;;;;;;;;;;2.74;78.13;95611.72;5073899;28;1084;-65
2023/12/05 00:24:59;;;;;;;;;;;;;;;2.86;77.89;95605.59;5073816;28;1107;-65
2023/12/05 00:27:25;;;;;;;;;;;;;;;2.88;77.50;95605.50;5073808;28;1060;-66
2023/12/05 00:29:51;;;;;;;;;;;;;;;2.84;78.00;95604.88;5073634;28;2065;-66
2023/12/05 00:32:17;;;;;;;;;;;;;;;2.66;78.96;95608.75;5073578;28;1112;-66
2023/12/05 00:34:46;;;;;;;;;;;;;;;2.60;79.21;95606.50;5056139;28;1164;-65
2023/12/05 00:37:12;;;;;;;;;;;;;;;2.66;78.91;95600.84;5073429;28;1021;-66
2023/12/05 00:39:38;;;;;;;;;;;;;;;2.81;79.60;95597.16;5055636;28;1098;-66
2023/12/05 00:42:04;;;;;;;;;;;;;;;2.81;79.75;95598.94;5073756;28;1065;-66
2023/12/05 00:44:30;;;;;;;;;;;;;;;2.74;79.87;95606.44;5073416;28;1033;-66
2023/12/05 00:46:56;;;;;;;;;;;;;;;2.77;81.38;95600.09;5073475;28;1043;-65
2023/12/05 00:49:22;;;;;;;;;;;;;;;2.67;81.60;95605.16;5073220;28;1910;-66
2023/12/05 00:51:48;;;;;;;;;;;;;;;2.78;80.70;95600.00;5073294;28;1085;-66
2023/12/05 00:54:14;;;;;;;;;;;;;;;2.59;80.68;95599.53;5073476;28;1245;-66
2023/12/05 00:56:40;;;;;;;;;;;;;;;2.56;81.18;95594.44;5073666;28;1052;-66
2023/12/05 00:59:06;;;;;;;;;;;;;;;2.63;81.92;95598.38;5073577;28;982;-66
2023/12/05 01:01:32;;;;;;;;;;;;;;;2.66;80.74;95596.38;5073559;28;1091;-66
2023/12/05 01:03:58;;;;;;;;;;;;;;;2.60;80.63;95593.28;5073270;28;1024;-66
2023/12/05 01:06:24;;;;;;;;;;;;;;;2.58;80.99;95590.78;5073337;28;1057;-66
2023/12/05 01:08:50;;;;;;;;;;;;;;;2.58;80.93;95585.50;5073415;28;1902;-66
2023/12/05 01:11:16;;;;;;;;;;;;;;;2.60;80.83;95582.72;5073271;28;970;-66
2023/12/05 01:13:45;;;;;;;;;;;;;;;2.78;81.00;95578.88;5073333;28;1046;-66
2023/12/05 01:16:11;;;;;;;;;;;;;;;2.68;80.10;95581.28;5072976;28;1116;-66
2023/12/05 01:18:37;;;;;;;;;;;;;;;2.61;80.55;95569.44;5073369;28;1040;-66
2023/12/05 01:21:03;;;;;;;;;;;;;;;2.72;80.36;95558.16;5073042;28;982;-65
2023/12/05 01:23:29;;;;;;;;;;;;;;;2.83;80.28;95555.66;5073244;28;1053;-65
2023/12/05 01:25:55;;;;;;;;;;;;;;;2.79;79.82;95555.94;5073284;28;1068;-66
2023/12/05 01:28:21;;;;;;;;;;;;;;;2.64;81.40;95549.94;5073181;28;1049;-66
2023/12/05 01:30:47;;;;;;;;;;;;;;;2.76;80.72;95553.53;5073143;28;1973;-66
2023/12/05 01:33:13;;;;;;;;;;;;;;;2.76;81.78;95558.81;5072945;28;1000;-66
2023/12/05 01:35:39;;;;;;;;;;;;;;;2.70;81.69;95558.25;5072912;28;1052;-66
2023/12/05 01:38:05;;;;;;;;;;;;;;;2.61;81.39;95556.25;5072988;28;1046;-66
2023/12/05 01:40:31;;;;;;;;;;;;;;;2.77;80.88;95556.06;5073051;28;1057;-66
2023/12/05 01:42:57;;;;;;;;;;;;;;;2.77;79.98;95557.84;5072987;28;961;-66
2023/12/05 01:45:23;;;;;;;;;;;;;;;2.79;80.97;95558.59;5072997;28;1083;-66
2023/12/05 01:47:49;;;;;;;;;;;;;;;2.84;82.64;95565.25;5072806;28;981;-66
2023/12/05 01:50:22;;;;;;;;;;;;;;;2.97;81.73;95559.97;5072896;28;1991;-66
2023/12/05 01:52:51;;;;;;;;;;;;;;;2.93;80.51;95569.91;5072954;28;1111;-65
2023/12/05 01:55:17;;;;;;;;;;;;;;;2.95;80.62;95555.75;5072851;28;1354;-66
2023/12/05 01:57:45;;;;;;;;;;;;;;;2.83;79.21;95549.53;5055149;28;1107;-66
2023/12/05 02:00:11;;;;;;;;;;;;;;;2.91;79.25;95545.41;5055131;28;1053;-66
2023/12/05 02:02:37;;;;;;;;;;;;;;;2.77;78.68;95547.28;5072933;28;967;-66
2023/12/05 02:05:04;;;;;;;;;;;;;;;2.70;80.20;95541.59;5072716;28;984;-66
2023/12/05 02:07:30;;;;;;;;;;;;;;;2.86;79.32;95550.13;5072818;28;1046;-66
2023/12/05 02:09:56;;;;;;;;;;;;;;;2.86;78.65;95538.75;5072824;28;1917;-66
2023/12/05 02:12:22;;;;;;;;;;;;;;;2.96;78.56;95544.22;5072647;28;1035;-66
2023/12/05 02:14:48;;;;;;;;;;;;;;;2.93;78.78;95540.00;5072686;28;974;-65
2023/12/05 02:17:17;;;;;;;;;;;;;;;2.75;78.18;95536.81;5072484;28;1038;-66
2023/12/05 02:19:43;;;;;;;;;;;;;;;2.74;77.44;95540.41;5072373;28;962;-66
2023/12/05 02:22:12;;;;;;;;;;;;;;;2.66;78.20;95538.31;5072480;28;1179;-65
2023/12/05 02:24:45;;;;;;;;;;;;;;;2.64;79.07;95536.72;5072646;28;982;-65
2023/12/05 02:27:37;;;;;;;;;;;;;;;2.65;78.84;95535.75;5073661;28;1026;-67
2023/12/05 02:30:04;;;;;;;;;;;;;;;2.87;79.75;95527.25;5072337;28;1926;-66
2023/12/05 02:32:30;;;;;;;;;;;;;;;3.01;79.09;95526.28;5076077;28;967;-66
2023/12/05 02:34:56;;;;;;;;;;;;;;;2.92;78.62;95515.41;5076212;28;1045;-66
2023/12/05 02:37:22;;;;;;;;;;;;;;;2.85;78.96;95505.38;5075825;28;1022;-66
2023/12/05 02:39:54;;;;;;;;;;;;;;;2.83;79.57;95510.75;5057895;28;1102;-66
2023/12/05 02:42:23;;;;;;;;;;;;;;;2.88;79.80;95503.38;5075858;28;970;-66
2023/12/05 02:44:51;;;;;;;;;;;;;;;2.78;80.89;95499.66;5075610;28;997;-66
2023/12/05 02:47:19;;;;;;;;;;;;;;;2.80;81.21;95489.00;5075935;28;1033;-66
2023/12/05 02:49:45;;;;;;;;;;;;;;;2.71;81.84;95485.16;5075706;28;1941;-66
2023/12/05 02:52:11;;;;;;;;;;;;;;;2.87;82.56;95493.75;5075567;28;1158;-65
2023/12/05 02:54:37;;;;;;;;;;;;;;;2.89;81.87;95497.13;5074608;28;1264;-66
2023/12/05 02:57:03;;;;;;;;;;;;;;;2.99;81.69;95507.06;5075590;28;1030;-66
2023/12/05 02:59:29;;;;;;;;;;;;;;;2.90;82.61;95504.09;5075586;28;981;-66
2023/12/05 03:01:55;;;;;;;;;;;;;;;2.88;83.14;95508.66;5075782;28;966;-66
2023/12/05 03:04:21;;;;;;;;;;;;;;;2.82;83.62;95505.56;5075514;28;993;-66
2023/12/05 03:06:47;;;;;;;;;;;;;;;2.77;83.99;95497.97;5057750;28;967;-66
2023/12/05 03:09:13;;;;;;;;;;;;;;;2.78;83.97;95494.38;5075281;28;2000;-66
2023/12/05 03:11:39;;;;;;;;;;;;;;;2.82;85.19;95492.38;5075270;28;1029;-66
2023/12/05 03:14:06;;;;;;;;;;;;;;;3.03;84.56;95503.25;5075403;28;1072;-69
2023/12/05 03:16:32;;;;;;;;;;;;;;;3.05;83.63;95491.59;5075342;28;1008;-64
2023/12/05 03:18:58;;;;;;;;;;;;;;;2.94;84.37;95486.25;5075405;28;1072;-64
2023/12/05 03:21:23;;;;;;;;;;;;;;;3.06;84.78;95485.38;5075220;28;996;-63
2023/12/05 03:23:49;;;;;;;;;;;;;;;2.99;85.96;95486.75;5075165;28;1061;-63
2023/12/05 03:26:19;;;;;;;;;;;;;;;2.97;85.62;95480.72;5075260;28;1068;-64
2023/12/05 03:28:45;;;;;;;;;;;;;;;2.97;84.94;95495.75;5074969;28;1909;-64
2023/12/05 03:31:11;;;;;;;;;;;;;;;3.02;84.65;95491.00;5074799;28;1057;-64
2023/12/05 03:33:37;;;;;;;;;;;;;;;3.01;84.20;95492.78;5057367;28;1062;-63
2023/12/05 03:36:03;;;;;;;;;;;;;;;2.90;84.48;95492.66;5075095;28;966;-63
2023/12/05 03:38:29;;;;;;;;;;;;;;;2.87;85.36;95487.63;5073527;28;1268;-64
2023/12/05 03:40:55;;;;;;;;;;;;;;;2.88;84.94;95487.53;5074760;28;965;-64
2023/12/05 03:43:21;;;;;;;;;;;;;;;2.86;85.35;95483.28;5056717;28;998;-64
2023/12/05 03:45:48;;;;;;;;;;;;;;;2.91;84.51;95483.81;5074622;28;1049;-64
2023/12/05 03:48:14;;;;;;;;;;;;;;;2.89;84.91;95486.56;5074728;28;1053;-64
2023/12/05 03:50:40;;;;;;;;;;;;;;;2.98;83.39;95486.84;5074539;28;1910;-64
2023/12/05 03:53:06;;;;;;;;;;;;;;;2.97;83.52;95482.53;5074526;28;981;-64
2023/12/05 03:55:33;;;;;;;;;;;;;;;2.97;83.22;95491.31;5074401;28;1319;-64
2023/12/05 03:57:59;;;;;;;;;;;;;;;2.94;82.60;95478.31;5074613;28;1049;-64
2023/12/05 04:00:25;;;;;;;;;;;;;;;3.06;81.78;95484.53;5074553;28;973;-64
2023/12/05 04:02:51;;;;;;;;;;;;;;;3.06;82.35;95480.09;5074545;28;1010;-64
2023/12/05 04:05:17;;;;;;;;;;;;;;;3.03;82.64;95469.72;5074148;28;1040;-64
2023/12/05 04:07:43;;;;;;;;;;;;;;;3.07;82.41;95467.72;5074125;28;1108;-64
2023/12/05 04:10:09;;;;;;;;;;;;;;;3.13;82.21;95462.88;5074017;28;1981;-62
2023/12/05 04:12:35;;;;;;;;;;;;;;;3.03;82.69;95463.63;5074131;28;977;-64
2023/12/05 04:15:01;;;;;;;;;;;;;;;2.97;82.74;95458.75;5074239;28;1074;-65
2023/12/05 04:17:27;;;;;;;;;;;;;;;3.09;82.64;95461.41;5073898;28;1084;-68
2023/12/05 04:19:53;;;;;;;;;;;;;;;3.11;82.02;95462.13;5074027;28;1004;-67
2023/12/05 04:22:19;;;;;;;;;;;;;;;3.15;82.41;95446.91;5074108;28;1056;-65
2023/12/05 04:24:45;;;;;;;;;;;;;;;3.10;81.72;95443.75;5074105;28;1060;-67
2023/12/05 04:27:11;;;;;;;;;;;;;;;2.96;82.91;95447.38;5073906;28;1064;-68
2023/12/05 04:29:37;;;;;;;;;;;;;;;2.79;81.75;95447.66;5073951;28;1984;-69
2023/12/05 04:32:03;;;;;;;;;;;;;;;2.89;82.74;95451.38;5073850;28;1232;-67
2023/12/05 04:34:29;;;;;;;;;;;;;;;2.84;83.25;95453.50;5073728;28;1053;-62
2023/12/05 04:36:55;;;;;;;;;;;;;;;2.89;83.56;95452.22;5073754;28;1000;-65
2023/12/05 04:39:20;;;;;;;;;;;;;;;3.06;83.47;95466.88;5073444;28;1073;-65
2023/12/05 04:41:46;;;;;;;;;;;;;;;3.03;83.68;95471.53;5073457;28;1179;-65
2023/12/05 04:44:13;;;;;;;;;;;;;;;2.96;84.54;95459.72;5073720;28;1053;-68
2023/12/05 04:46:38;;;;;;;;;;;;;;;2.82;83.54;95450.94;5073829;28;978;-66
2023/12/05 04:49:07;;;;;;;;;;;;;;;2.86;84.63;95460.34;5073385;28;1985;-66
2023/12/05 04:51:33;;;;;;;;;;;;;;;2.99;84.72;95467.44;5073110;28;981;-67
2023/12/05 04:54:00;;;;;;;;;;;;;;;2.92;84.20;95459.94;5073321;28;1316;-66
2023/12/05 04:56:26;;;;;;;;;;;;;;;2.95;83.70;95465.97;5073181;28;1033;-66
2023/12/05 04:58:52;;;;;;;;;;;;;;;2.87;84.53;95456.75;5073620;28;967;-67
2023/12/05 05:01:18;;;;;;;;;;;;;;;3.01;84.60;95465.53;5073394;28;1011;-67
2023/12/05 05:03:44;;;;;;;;;;;;;;;3.05;84.02;95465.19;5073586;28;1050;-65
2023/12/05 05:06:10;;;;;;;;;;;;;;;3.16;82.75;95463.59;5073480;28;1004;-67
2023/12/05 05:08:36;;;;;;;;;;;;;;;3.03;83.21;95461.81;5072875;28;1902;-64
2023/12/05 05:11:02;;;;;;;;;;;;;;;3.19;82.77;95452.81;5072824;28;1055;-64
2023/12/05 05:13:28;;;;;;;;;;;;;;;3.41;80.84;95463.53;5073375;28;1060;-64
2023/12/05 05:15:54;;;;;;;;;;;;;;;3.30;81.86;95456.38;5055410;28;1049;-63
2023/12/05 05:18:20;;;;;;;;;;;;;;;3.20;82.71;95457.97;5073414;28;957;-64
2023/12/05 05:20:46;;;;;;;;;;;;;;;3.22;82.79;95465.81;5073223;28;981;-63
2023/12/05 05:23:12;;;;;;;;;;;;;;;3.21;82.86;95458.84;5073197;28;974;-63
2023/12/05 05:25:38;;;;;;;;;;;;;;;3.34;82.68;95451.72;5073060;28;1025;-64
2023/12/05 05:28:04;;;;;;;;;;;;;;;3.30;82.48;95458.16;5073318;28;1036;-65
2023/12/05 05:30:30;;;;;;;;;;;;;;;3.19;83.40;95450.16;5073118;28;2063;-64
2023/12/05 05:32:56;;;;;;;;;;;;;;;3.23;82.50;95454.28;5073200;28;1088;-64
2023/12/05 05:35:22;;;;;;;;;;;;;;;3.22;82.96;95456.06;5073066;28;981;-64
2023/12/05 05:37:48;;;;;;;;;;;;;;;3.24;82.88;95443.59;5073060;28;1219;-65
2023/12/05 05:40:14;;;;;;;;;;;;;;;3.10;83.66;95441.94;5072899;28;1045;-64
2023/12/05 05:42:40;;;;;;;;;;;;;;;3.07;83.86;95447.47;5072821;28;1349;-60
2023/12/05 05:45:06;;;;;;;;;;;;;;;3.14;83.58;95455.78;5055367;28;1069;-64
2023/12/05 05:47:33;;;;;;;;;;;;;;;3.26;83.55;95441.72;5072733;28;1127;-63
2023/12/05 05:49:59;;;;;;;;;;;;;;;3.27;83.64;95440.75;5072861;28;1910;-65
2023/12/05 05:52:25;;;;;;;;;;;;;;;3.38;83.46;95429.41;5072845;28;1032;-65
2023/12/05 05:54:51;;;;;;;;;;;;;;;3.55;82.64;95438.78;5072670;28;1238;-64
2023/12/05 05:57:17;;;;;;;;;;;;;;;3.60;82.77;95441.91;5072972;28;985;-64
2023/12/05 05:59:43;;;;;;;;;;;;;;;3.57;82.09;95433.38;5072957;28;958;-64
2023/12/05 06:02:10;;;;;;;;;;;;;;;3.43;82.33;95434.34;5074344;28;962;-65
2023/12/05 06:04:40;;;;;;;;;;;;;;;3.36;82.25;95414.59;5076700;28;1085;-64
2023/12/05 06:07:07;;;;;;;;;;;;;;;3.25;81.98;95415.38;5076520;28;1017;-65
2023/12/05 06:09:33;;;;;;;;;;;;;;;3.41;80.63;95418.59;5057799;28;1903;-65
2023/12/05 06:11:59;;;;;;;;;;;;;;;3.30;81.34;95422.03;5075784;28;1045;-65
2023/12/05 06:14:25;;;;;;;;;;;;;;;3.30;82.50;95432.59;5058285;28;1008;-65
2023/12/05 06:16:51;;;;;;;;;;;;;;;3.40;81.99;95429.31;5058622;28;1033;-65
2023/12/05 06:19:17;;;;;;;;;;;;;;;3.45;82.15;95424.50;5076368;28;966;-65
2023/12/05 06:21:43;;;;;;;;;;;;;;;3.32;82.41;95425.41;5076214;28;1057;-64
2023/12/05 06:24:10;;;;;;;;;;;;;;;3.35;82.66;95423.50;5076407;28;1005;-65
2023/12/05 06:26:36;;;;;;;;;;;;;;;3.45;82.49;95416.56;5076136;28;1103;-65
2023/12/05 06:29:05;;;;;;;;;;;;;;;3.57;83.18;95413.06;5076020;28;1906;-65
2023/12/05 06:31:32;;;;;;;;;;;;;;;3.53;82.46;95422.19;5076205;28;992;-65
2023/12/05 06:33:58;;;;;;;;;;;;;;;3.61;82.15;95433.03;5058444;28;1017;-65
2023/12/05 06:36:24;;;;;;;;;;;;;;;3.50;82.54;95427.69;5076217;28;984;-65
2023/12/05 06:38:50;;;;;;;;;;;;;;;3.47;82.09;95425.25;5057983;28;1248;-65
2023/12/05 06:41:17;;;;;;;;;;;;;;;3.57;80.60;95428.09;5075890;28;1087;-65
2023/12/05 06:43:43;;;;;;;;;;;;;;;3.59;80.77;95424.38;5076372;28;1005;-65
2023/12/05 06:46:09;;;;;;;;;;;;;;;3.70;79.00;95421.78;5076135;28;915;-65
2023/12/05 06:48:35;;;;;;;;;;;;;;;3.80;79.38;95418.47;5058080;28;1025;-65
2023/12/05 06:51:01;;;;;;;;;;;;;;;3.89;78.63;95425.72;5075701;28;1910;-66
2023/12/05 06:53:27;;;;;;;;;;;;;;;4.05;79.11;95423.59;5075552;28;1044;-66
2023/12/05 06:55:54;;;;;;;;;;;;;;;4.09;78.53;95408.34;5055480;28;1112;-66
2023/12/05 06:58:22;;;;;;;;;;;;;;;4.04;78.20;95411.34;5055705;28;1048;-62
2023/12/05 07:00:48;;;;;;;;;;;;;;;4.07;78.67;95434.91;5055872;28;975;-62
2023/12/05 07:03:15;;;;;;;;;;;;;;;3.99;79.13;95434.66;5055578;28;1065;-62
2023/12/05 07:05:41;;;;;;;;;;;;;;;3.85;81.19;95427.75;5055523;28;1051;-62
2023/12/05 07:08:08;;;;;;;;;;;;;;;3.75;83.08;95428.53;5055433;28;977;-62
2023/12/05 07:10:34;;;;;;;;;;;;;;;3.80;82.41;95423.75;5055254;28;1995;-61
2023/12/05 07:13:00;;;;;;;;;;;;;;;4.00;82.21;95416.97;5055517;28;1053;-61
2023/12/05 07:15:26;;;;;;;;;;;;;;;3.93;82.70;95424.53;5055468;28;1183;-62
2023/12/05 07:17:52;;;;;;;;;;;;;;;3.94;82.69;95431.50;5055580;28;989;-61
2023/12/05 07:20:18;;;;;;;;;;;;;;;3.84;83.53;95427.84;5055222;28;973;-61
2023/12/05 07:22:44;;;;;;;;;;;;;;;3.98;82.88;95425.00;5055139;28;1017;-60
2023/12/05 07:25:10;;;;;;;;;;;;;;;4.21;81.34;95428.59;5055422;28;1076;-65
2023/12/05 07:27:36;;;;;;;;;;;;;;;4.16;80.72;95422.81;5037481;28;1016;-65
2023/12/05 07:30:03;;;;;;;;;;;;;;;4.06;80.86;95421.78;5055129;28;1906;-64
2023/12/05 07:32:29;;;;;;;;;;;;;;;4.08;80.41;95420.75;5055098;28;1025;-63
2023/12/05 07:34:55;;;;;;;;;;;;;;;4.05;80.73;95415.66;5054953;28;1532;-65
2023/12/05 07:37:21;;;;;;;;;;;;;;;4.09;79.50;95413.63;5054988;28;1056;-66
2023/12/05 07:39:47;;;;;;;;;;;;;;;4.09;78.45;95401.25;5054577;28;1185;-65
2023/12/05 07:42:13;;;;;;;;;;;;;;;4.30;79.61;95405.88;5054838;28;985;-64
2023/12/05 07:44:39;;;;;;;;;;;;;;;4.46;78.32;95410.88;5054160;28;1056;-64
2023/12/05 07:47:07;;;;;;;;;;;;;;;4.54;77.02;95407.63;5054756;28;1076;-64
2023/12/05 07:49:33;;;;;;;;;;;;;;;4.70;77.07;95421.34;5054678;28;1983;-64
2023/12/05 07:52:00;;;;;;;;;;;;;;;4.72;77.30;95418.59;5054640;28;941;-64
2023/12/05 07:54:26;;;;;;;;;;;;;;;4.66;76.73;95414.63;5062279;28;1309;-64
2023/12/05 07:56:52;;;;;;;;;;;;;;;4.41;76.98;95410.38;5074369;28;1096;-64
2023/12/05 08:02:37;;;;;;;;;;;;;;;4.64;77.84;95416.53;5074066;28;1037;-64
2023/12/05 08:05:03;;;;;;;;;;;;;;;4.48;75.19;95424.81;5074156;28;1029;-65
2023/12/05 08:07:29;;;;;;;;;;;;;;;4.46;76.89;95417.00;5074362;28;998;-64
2023/12/05 08:09:55;;;;;;;;;;;;;;;4.55;77.76;95417.25;5074111;28;1976;-64
2023/12/05 08:12:21;;;;;;;;;;;;;;;4.63;77.34;95423.66;5074214;28;965;-64
2023/12/05 08:14:47;;;;;;;;;;;;;;;4.67;76.39;95403.06;5074278;28;966;-64
2023/12/05 08:17:13;;;;;;;;;;;;;;;4.72;75.02;95410.66;5073822;28;969;-64
2023/12/05 08:19:39;;;;;;;;;;;;;;;4.83;76.38;95413.31;5073877;28;1101;-64
2023/12/05 08:22:05;;;;;;;;;;;;;;;4.63;76.28;95407.75;5073897;28;1092;-64
2023/12/05 08:24:31;;;;;;;;;;;;;;;4.64;75.60;95401.47;5073481;28;993;-64
2023/12/05 08:26:58;;;;;;;;;;;;;;;4.73;75.78;95402.59;5074128;28;992;-65
2023/12/05 08:29:24;;;;;;;;;;;;;;;5.00;76.32;95404.88;5073892;28;1910;-65
2023/12/05 08:31:50;;;;;;;;;;;;;;;5.17;76.44;95402.72;5055966;28;978;-65
2023/12/05 08:34:16;;;;;;;;;;;;;;;4.98;74.86;95400.66;5073829;28;1025;-65
2023/12/05 08:36:44;;;;;;;;;;;;;;;4.90;75.95;95395.97;5073941;28;981;-64
2023/12/05 08:39:13;;;;;;;;;;;;;;;4.84;74.23;95397.28;5073336;28;1243;-64
2023/12/05 08:41:39;;;;;;;;;;;;;;;4.80;75.22;95387.03;5073567;28;1099;-64
2023/12/05 08:44:05;;;;;;;;;;;;;;;4.83;75.44;95390.28;5073824;28;976;-65
2023/12/05 08:46:31;;;;;;;;;;;;;;;4.94;75.48;95376.22;5073401;28;975;-64
2023/12/05 08:48:58;;;;;;;;;;;;;;;4.83;75.25;95371.75;5073654;28;1985;-65
2023/12/05 08:51:24;;;;;;;;;;;;;;;4.89;73.97;95362.47;5073648;28;1041;-65
2023/12/05 08:53:50;;;;;;;;;;;;;;;4.96;72.54;95360.19;5073250;28;1300;-65
2023/12/05 08:56:15;;;;;;;;;;;;;;;5.20;72.93;95363.53;5073242;28;1052;-65
2023/12/05 08:58:42;;;;;;;;;;;;;;;5.24;73.11;95353.53;5073341;28;1084;-64
2023/12/05 09:01:11;;;;;;;;;;;;;;;5.23;72.90;95344.72;5073242;28;974;-64
2023/12/05 09:03:37;;;;;;;;;;;;;;;5.27;72.53;95338.22;5072329;28;1045;-65
2023/12/05 09:06:03;;;;;;;;;;;;;;;5.36;71.40;95325.19;5073382;28;1000;-65
2023/12/05 09:08:29;;;;;;;;;;;;;;;5.58;72.55;95325.13;5073105;28;1087;-64
2023/12/05 09:10:57;;;;;;;;;;;;;;;5.73;72.93;95316.84;5073376;28;1906;-64
2023/12/05 09:13:23;;;;;;;;;;;;;;;5.52;71.31;95312.38;5073054;28;1048;-64
2023/12/05 09:15:52;;;;;;;;;;;;;;;5.54;72.07;95302.47;5073060;28;1016;-64
2023/12/05 09:18:18;;;;;;;;;;;;;;;5.87;72.77;95313.91;5073274;28;977;-64
2023/12/05 09:20:44;;;;;;;;;;;;;;;5.89;71.81;95290.72;5073163;28;1000;-64
2023/12/05 09:23:11;;;;;;;;;;;;;;;5.73;72.31;95291.19;5073410;28;982;-66
2023/12/05 09:25:38;;;;;;;;;;;;;;;5.65;73.16;95288.28;5073124;28;1048;-64
2023/12/05 09:28:04;;;;;;;;;;;;;;;5.39;72.95;95287.81;5072870;28;1171;-64
2023/12/05 09:30:30;;;;;;;;;;;;;;;5.40;75.82;95286.84;5072776;28;1910;-63
2023/12/05 09:32:56;;;;;;;;;;;;;;;5.45;75.17;95272.22;5073230;28;1121;-64
2023/12/05 09:35:22;;;;;;;;;;;;;;;5.63;73.99;95259.28;5073158;28;997;-63
2023/12/05 09:37:48;;;;;;;;;;;;;;;5.72;74.64;95264.78;5075328;28;1224;-64
2023/12/05 09:40:14;;;;;;;;;;;;;;;5.79;72.46;95276.56;5077060;28;978;-62
2023/12/05 09:42:42;;;;;;;;;;;;;;;5.77;74.34;95273.19;5076927;28;1033;-62
2023/12/05 09:45:12;;;;;;;;;;;;;;;5.73;73.24;95264.66;5077148;28;1057;-63
2023/12/05 09:47:39;;;;;;;;;;;;;;;5.78;73.33;95258.94;5077130;28;988;-63
2023/12/05 09:50:05;;;;;;;;;;;;;;;5.87;73.59;95256.34;5077094;28;2055;-63
2023/12/05 09:52:31;;;;;;;;;;;;;;;5.80;73.46;95247.22;5076967;28;1046;-63
2023/12/05 09:54:58;;;;;;;;;;;;;;;5.75;72.41;95235.31;5076666;28;1268;-63
2023/12/05 09:57:25;;;;;;;;;;;;;;;5.88;73.70;95230.66;5058790;28;1029;-62
2023/12/05 09:59:51;;;;;;;;;;;;;;;5.74;72.29;95215.91;5058873;28;1096;-63
2023/12/05 10:02:18;;;;;;;;;;;;;;;5.80;71.03;95225.16;5076520;28;1039;-63
2023/12/05 10:04:44;;;;;;;;;;;;;;;5.94;73.64;95218.66;5076520;28;1008;-63
2023/12/05 10:07:14;;;;;;;;;;;;;;;5.93;73.14;95211.69;5076461;28;1058;-63
2023/12/05 10:09:40;;;;;;;;;;;;;;;5.80;73.32;95204.75;5076493;28;1993;-62
2023/12/05 10:12:08;;;;;;;;;;;;;;;5.74;74.58;95204.44;5076285;28;992;-63
2023/12/05 10:14:34;;;;;;;;;;;;;;;5.68;74.09;95196.03;5076011;28;1017;-62
2023/12/05 10:17:00;;;;;;;;;;;;;;;5.70;74.79;95190.59;5076404;28;985;-63
2023/12/05 10:19:27;;;;;;;;;;;;;;;5.83;74.89;95185.09;5076259;28;1061;-62
2023/12/05 10:21:53;;;;;;;;;;;;;;;5.90;73.68;95185.41;5076226;28;979;-61
2023/12/05 10:24:20;;;;;;;;;;;;;;;5.90;73.43;95173.00;5076315;28;1004;-62
2023/12/05 10:26:47;;;;;;;;;;;;;;;6.05;73.02;95174.34;5075997;28;1048;-64
2023/12/05 10:29:14;;;;;;;;;;;;;;;6.01;73.01;95172.09;5076088;28;1989;-63
2023/12/05 10:31:40;;;;;;;;;;;;;;;6.12;73.56;95173.81;5075927;28;1290;-63
2023/12/05 10:34:06;;;;;;;;;;;;;;;6.03;73.61;95163.03;5076146;28;1073;-63
2023/12/05 10:36:33;;;;;;;;;;;;;;;6.03;73.47;95147.09;5075846;28;1020;-63
2023/12/05 10:38:59;;;;;;;;;;;;;;;5.89;73.80;95141.28;5075614;28;1334;-63
2023/12/05 10:41:27;;;;;;;;;;;;;;;6.00;74.41;95146.53;5075953;28;962;-63
2023/12/05 10:43:55;;;;;;;;;;;;;;;6.07;73.52;95139.72;5075862;28;1065;-63
2023/12/05 10:46:26;;;;;;;;;;;;;;;6.04;74.45;95134.66;5075946;28;1040;-62
2023/12/05 10:48:52;;;;;;;;;;;;;;;5.94;73.82;95117.81;5075059;28;1975;-62
2023/12/05 10:51:18;;;;;;;;;;;;;;;5.67;74.11;95103.31;5075488;28;1033;-63
2023/12/05 10:53:44;;;;;;;;;;;;;;;5.83;74.07;95116.13;5075718;28;1245;-63
2023/12/05 10:56:13;;;;;;;;;;;;;;;5.98;75.17;95104.19;5075688;28;993;-63
2023/12/05 10:58:42;;;;;;;;;;;;;;;6.22;74.03;95097.69;5075421;28;1053;-62
2023/12/05 11:01:12;;;;;;;;;;;;;;;6.54;72.17;95099.28;5075745;28;1066;-63
2023/12/05 11:03:38;;;;;;;;;;;;;;;6.62;71.79;95105.63;5075305;28;1053;-63
2023/12/05 11:06:05;;;;;;;;;;;;;;;6.67;70.24;95089.25;5075396;28;1066;-62
2023/12/05 11:08:32;;;;;;;;;;;;;;;6.61;71.00;95092.47;5075007;28;1100;-63
2023/12/05 11:11:01;;;;;;;;;;;;;;;6.66;70.60;95100.88;5075375;28;1902;-62
2023/12/05 11:13:27;;;;;;;;;;;;;;;6.86;70.38;95100.88;5075423;28;1073;-62
2023/12/05 11:15:56;;;;;;;;;;;;;;;6.86;69.46;95087.59;5075270;28;1004;-62
2023/12/05 11:18:29;;;;;;;;;;;;;;;6.91;70.31;95099.47;5075119;28;1008;-62
2023/12/05 11:21:12;;;;;;;;;;;;;;;6.94;71.37;95098.34;5075319;28;1050;-62
2023/12/05 11:23:38;;;;;;;;;;;;;;;6.96;70.62;95109.66;5057283;28;1065;-62
2023/12/05 11:26:14;;;;;;;;;;;;;;;7.08;72.06;95102.41;5075221;28;985;-63
2023/12/05 11:28:58;;;;;;;;;;;;;;;6.93;71.36;95094.84;5075147;28;1005;-63
2023/12/05 11:31:36;;;;;;;;;;;;;;;7.17;71.00;95091.78;5074929;28;1057;-62
2023/12/05 11:34:14;;;;;;;;;;;;;;;7.21;71.12;95087.00;5073505;28;1021;-62
2023/12/05 11:36:43;;;;;;;;;;;;;;;7.29;71.09;95088.97;5074739;28;1076;-63
2023/12/05 11:39:09;;;;;;;;;;;;;;;7.27;71.51;95094.41;5074676;28;1196;-64
2023/12/05 11:41:35;;;;;;;;;;;;;;;7.42;70.65;95094.81;5074660;28;1077;-64
2023/12/05 11:44:11;;;;;;;;;;;;;;;7.42;70.75;95081.50;5074939;28;1009;-64
2023/12/05 11:46:37;;;;;;;;;;;;;;;7.20;71.38;95070.19;5074924;28;988;-64
2023/12/05 11:49:03;;;;;;;;;;;;;;;7.24;71.20;95068.09;5074710;28;1914;-64
2023/12/05 11:51:36;;;;;;;;;;;;;;;7.23;71.19;95072.59;5074705;28;1021;-64
2023/12/05 11:54:10;;;;;;;;;;;;;;;7.20;71.94;95070.19;5074406;28;1260;-64
2023/12/05 11:56:36;;;;;;;;;;;;;;;7.14;72.05;95072.59;5069625;28;1352;-64
2023/12/05 11:59:11;;;;;;;;;;;;;;;7.34;71.66;95071.59;5074151;28;1020;-64
2023/12/05 12:01:37;;;;;;;;;;;;;;;7.41;72.08;95066.53;5074120;28;1080;-63
2023/12/05 12:04:16;;;;;;;;;;;;;;;7.51;70.89;95067.34;5074282;28;1025;-64
2023/12/05 12:06:42;;;;;;;;;;;;;;;7.49;71.43;95069.28;5074251;28;1061;-63
2023/12/05 12:09:08;;;;;;;;;;;;;;;7.27;71.52;95062.50;5074027;28;2001;-64
2023/12/05 12:11:34;;;;;;;;;;;;;;;7.30;73.36;95064.03;5074355;28;1053;-64
2023/12/05 12:14:10;;;;;;;;;;;;;;;7.35;73.26;95057.28;5074127;28;1028;-64
2023/12/05 12:16:38;;;;;;;;;;;;;;;7.33;73.61;95066.41;5074017;28;1025;-64
2023/12/05 12:19:04;;;;;;;;;;;;;;;7.24;74.43;95062.78;5073997;28;1202;-64
2023/12/05 12:21:30;;;;;;;;;;;;;;;7.30;74.36;95067.50;5074099;28;971;-63
2023/12/05 12:23:57;;;;;;;;;;;;;;;7.28;73.70;95055.34;5073851;28;1076;-63
2023/12/05 12:26:23;;;;;;;;;;;;;;;7.26;73.25;95062.63;5074091;28;1101;-64
2023/12/05 12:28:49;;;;;;;;;;;;;;;7.46;73.47;95069.59;5073761;28;1044;-64
2023/12/05 12:31:27;;;;;;;;;;;;;;;7.41;74.79;95069.19;5073741;28;1910;-64
2023/12/05 12:33:53;;;;;;;;;;;;;;;7.33;73.99;95077.03;5073899;28;970;-64
2023/12/05 12:36:20;;;;;;;;;;;;;;;7.27;74.92;95074.97;5073558;28;961;-64
2023/12/05 12:38:46;;;;;;;;;;;;;;;7.17;75.69;95077.63;5073471;28;1077;-64
2023/12/05 12:41:13;;;;;;;;;;;;;;;7.28;74.70;95072.13;5073505;28;1034;-61
2023/12/05 12:43:41;;;;;;;;;;;;;;;7.24;74.87;95071.59;5073697;28;985;-63
2023/12/05 12:46:07;;;;;;;;;;;;;;;7.11;75.76;95063.06;5073487;28;1057;-64
2023/12/05 12:48:35;;;;;;;;;;;;;;;7.15;75.47;95067.16;5073673;28;970;-64
2023/12/05 12:51:01;;;;;;;;;;;;;;;7.30;75.64;95058.69;5073635;28;1992;-64
2023/12/05 12:53:27;;;;;;;;;;;;;;;7.35;75.20;95056.47;5073590;28;1044;-64
2023/12/05 12:55:53;;;;;;;;;;;;;;;7.33;76.05;95053.94;5073240;28;1320;-64
2023/12/05 12:58:26;;;;;;;;;;;;;;;7.35;75.57;95053.81;5073272;28;1116;-65
2023/12/05 13:00:52;;;;;;;;;;;;;;;7.52;74.15;95047.72;5055954;28;1042;-64
2023/12/05 13:03:18;;;;;;;;;;;;;;;7.64;74.23;95053.69;5073199;28;981;-64
2023/12/05 13:05:44;;;;;;;;;;;;;;;7.75;73.61;95044.72;5073518;28;1023;-63
2023/12/05 13:08:13;;;;;;;;;;;;;;;7.93;72.84;95045.63;5073126;28;1024;-63
2023/12/05 13:10:41;;;;;;;;;;;;;;;7.93;72.79;95039.44;5072927;28;2031;-64